KSKA/SKA METAR and TAF weather

Enter ICAO airport designator
Station Type Date Time Source
KSKA METAR 2019/10/23 19:58 UTC NOAA

KSKA 231958Z AUTO 36010KT 10SM CLR 11/M04 A3041 RMK AO2 SLPNO T01081041 $


Station Type Date Time Source
KSKA Decoded METAR 2019/10/23 19:58 UTC NOAA

Fairchild Air Force Base, WA, United States (KSKA) 47-37N 117-39W
Oct 23, 2019 - 03:58 PM EDT / 2019.10.23 1958 UTC
Wind: from the N (360 degrees) at 12 MPH (10 KT):0
Visibility: 10 mile(s):0
Sky conditions: clear
Temperature: 51.4 F (10.8 C)
Dew Point: 24.6 F (-4.1 C)
Relative Humidity: 34%
Pressure (altimeter): 30.41 in. Hg (1029 hPa)
ob: KSKA 231958Z AUTO 36010KT 10SM CLR 11/M04 A3041 RMK AO2 SLPNO T01081041
cycle: 20

Station Type Date Time Source
KSKA TAF 2019/10/23 19:35 UTC NOAA

TAF COR KSKA 231925Z 2319/2501 33009KT 9999 FEW200 QNH3034INS
BECMG 2406/2407 18003KT 9999 SCT090 QNH3047INS
BECMG 2411/2412 16004KT 9999 MIFG FEW080 QNH3046INS
BECMG 2415/2416 19005KT 9999 NSW BKN060 QNH3040INS TX11/2321Z TN01/2412Z

Example: see airport list